createdAt,value
2023-02-19T00:01:43.713Z,98535.56
2023-02-19T00:04:14.550Z,98530.78
2023-02-19T00:06:44.592Z,98521.34
2023-02-19T00:09:13.474Z,98525.06
2023-02-19T00:11:42.206Z,98512.09
2023-02-19T00:14:11.677Z,98508.59
2023-02-19T00:16:40.998Z,98519.34
2023-02-19T00:19:13.001Z,98520.94
2023-02-19T00:21:40.611Z,98514.53
2023-02-19T00:24:12.048Z,98516.31
2023-02-19T00:26:41.733Z,98512.03
2023-02-19T00:29:13.208Z,98511.34
2023-02-19T00:31:41.205Z,98506.56
2023-02-19T00:34:10.353Z,98515.72
2023-02-19T00:36:39.357Z,98513.97
2023-02-19T00:39:09.838Z,98509.19
2023-02-19T00:41:37.510Z,98505.41
2023-02-19T00:44:06.888Z,98508.69
2023-02-19T00:46:37.038Z,98510.97
2023-02-19T00:49:06.542Z,98518.19
2023-02-19T00:51:36.750Z,98506.03
2023-02-19T00:54:05.078Z,98505.84
2023-02-19T00:56:34.268Z,98496.56
2023-02-19T00:59:01.946Z,98510.34
2023-02-19T01:01:29.648Z,98504.91
2023-02-19T01:03:57.361Z,98496.25
2023-02-19T01:06:25.355Z,98477.06
2023-02-19T01:08:53.285Z,98488.75
2023-02-19T01:11:21.168Z,98480.91
2023-02-19T01:13:50.261Z,98470.34
2023-02-19T01:16:19.893Z,98477.22
2023-02-19T01:18:48.722Z,98470.03
2023-02-19T01:21:18.789Z,98469.38
2023-02-19T01:23:47.415Z,98468.75
2023-02-19T01:26:17.024Z,98474.19
2023-02-19T01:28:45.352Z,98471.28
2023-02-19T01:31:16.636Z,98473.84
2023-02-19T01:33:46.840Z,98459.59
2023-02-19T01:36:15.204Z,98453.66
2023-02-19T01:38:42.879Z,98444.22
2023-02-19T01:41:13.581Z,98442.72
2023-02-19T01:43:58.825Z,98434.56
2023-02-19T01:46:29.407Z,98431.09
2023-02-19T01:48:59.674Z,98434.16
2023-02-19T01:51:28.178Z,98433.19
2023-02-19T01:53:59.920Z,98421.66
2023-02-19T01:56:28.568Z,98416.22
2023-02-19T01:58:56.322Z,98412.22
2023-02-19T02:01:23.988Z,98413.69
2023-02-19T02:03:53.364Z,98427.09
2023-02-19T02:06:24.837Z,98419.25
2023-02-19T02:09:12.069Z,98421.19
2023-02-19T02:11:43.388Z,98435.44
2023-02-19T02:14:11.147Z,98424.56
2023-02-19T02:16:47.180Z,98427.75
2023-02-19T02:19:31.605Z,98422.31
2023-02-19T02:22:12.628Z,98428.06
2023-02-19T02:25:12.685Z,98413.03
2023-02-19T02:27:50.230Z,98409.19
2023-02-19T02:30:30.498Z,98406.47
2023-02-19T02:33:05.813Z,98413.97
2023-02-19T02:35:39.721Z,98403.09
2023-02-19T02:38:11.193Z,98399.72
2023-02-19T02:40:42.482Z,98401.63
2023-02-19T02:43:10.257Z,98389.47
2023-02-19T02:45:40.057Z,98382.44
2023-02-19T02:48:21.532Z,98391.25
2023-02-19T02:50:53.487Z,98392.22
2023-02-19T02:53:41.340Z,98396.03
2023-02-19T02:56:11.096Z,98381.97
2023-02-19T02:58:39.557Z,98371.38
2023-02-19T03:01:38.345Z,98388.19
2023-02-19T03:04:09.917Z,98370.72
2023-02-19T03:06:38.917Z,98374.69
2023-02-19T03:09:12.454Z,98379.34
2023-02-19T03:12:01.507Z,98365.06
2023-02-19T03:14:52.866Z,98367.28
2023-02-19T03:17:44.938Z,98367.13
2023-02-19T03:20:17.064Z,98360.09
2023-02-19T03:22:47.507Z,98359.44
2023-02-19T03:25:36.314Z,98360.09
2023-02-19T03:28:07.752Z,98352.41
2023-02-19T03:30:38.723Z,98357.66
2023-02-19T03:33:10.821Z,98368.25
2023-02-19T03:35:42.915Z,98368.56
2023-02-19T03:38:18.500Z,98358.13
2023-02-19T03:40:55.244Z,98361.31
2023-02-19T03:43:28.165Z,98360.19
2023-02-19T03:46:04.774Z,98350.63
2023-02-19T03:48:36.096Z,98351.75
2023-02-19T03:51:17.735Z,98353.34
2023-02-19T03:53:54.963Z,98347.91
2023-02-19T03:56:29.370Z,98342.47
2023-02-19T03:59:02.463Z,98340.06
2023-02-19T04:01:36.399Z,98352.56
2023-02-19T04:04:14.077Z,98338.63
2023-02-19T04:06:44.534Z,98340.06
2023-02-19T04:09:14.005Z,98345.97
2023-02-19T04:11:41.828Z,98354.94
2023-02-19T04:14:17.268Z,98357.19
2023-02-19T04:16:50.303Z,98355.84
2023-02-19T04:19:22.825Z,98349.50
2023-02-19T04:21:51.918Z,98365.84
2023-02-19T04:24:24.207Z,98373.00
2023-02-19T04:26:52.659Z,98370.63
2023-02-19T04:29:20.324Z,98356.66
2023-02-19T04:31:48.069Z,98354.94
2023-02-19T04:34:15.706Z,98354.63
2023-02-19T04:36:44.840Z,98362.09
2023-02-19T04:39:12.469Z,98361.31
2023-02-19T04:41:40.229Z,98349.75
2023-02-19T04:44:07.822Z,98362.91
2023-02-19T04:46:35.556Z,98361.19
2023-02-19T04:49:03.298Z,98361.59
2023-02-19T04:51:30.900Z,98369.94
2023-02-19T04:53:59.928Z,98370.41
2023-02-19T04:56:27.620Z,98378.41
2023-02-19T04:58:55.333Z,98388.16
2023-02-19T05:01:23.050Z,98389.00
2023-02-19T05:03:50.719Z,98384.16
2023-02-19T05:06:18.677Z,98373.78
2023-02-19T05:08:46.369Z,98375.38
2023-02-19T05:11:15.555Z,98378.56
2023-02-19T05:13:43.245Z,98372.19
2023-02-19T05:16:13.805Z,98367.22
2023-02-19T05:18:42.201Z,98373.47
2023-02-19T05:21:11.438Z,98367.22
2023-02-19T05:23:39.515Z,98362.56
2023-02-19T05:26:08.146Z,98373.13
2023-02-19T05:28:37.468Z,98371.69
2023-02-19T05:31:07.710Z,98371.69
2023-02-19T05:33:35.940Z,98357.94
2023-02-19T05:36:07.490Z,98361.59
2023-02-19T05:38:35.341Z,98359.34
2023-02-19T05:41:11.462Z,98357.09
2023-02-19T05:43:41.615Z,98361.88
2023-02-19T05:46:14.558Z,98368.63
2023-02-19T05:48:42.254Z,98374.88
2023-02-19T05:51:12.350Z,98370.56
2023-02-19T05:53:40.850Z,98388.16
2023-02-19T05:56:24.864Z,98382.38
2023-02-19T05:58:55.449Z,98379.66
2023-02-19T06:01:25.713Z,98390.69
2023-02-19T06:03:56.848Z,98391.50
2023-02-19T06:06:24.959Z,98394.81
2023-02-19T06:08:52.660Z,98404.75
2023-02-19T06:11:20.934Z,98408.63
2023-02-19T06:13:50.043Z,98401.56
2023-02-19T06:16:19.828Z,98414.88
2023-02-19T06:18:47.597Z,98417.44
2023-02-19T06:21:16.816Z,98406.28
2023-02-19T06:23:44.973Z,98400.84
2023-02-19T06:26:14.307Z,98402.44
2023-02-19T06:28:43.185Z,98412.69
2023-02-19T06:31:12.154Z,98408.16
2023-02-19T06:33:41.884Z,98412.94
2023-02-19T06:36:13.296Z,98415.66
2023-02-19T06:38:41.014Z,98420.94
2023-02-19T06:41:10.094Z,98426.38
2023-02-19T06:43:38.008Z,98423.91
2023-02-19T06:46:07.212Z,98425.88
2023-02-19T06:48:35.977Z,98433.69
2023-02-19T06:51:05.245Z,98447.66
2023-02-19T06:53:32.905Z,98445.03
2023-02-19T06:56:02.731Z,98449.69
2023-02-19T06:58:30.772Z,98457.53
2023-02-19T07:00:58.462Z,98455.28
2023-02-19T07:03:27.259Z,98450.31
2023-02-19T07:05:55.063Z,98468.09
2023-02-19T07:08:24.055Z,98466.66
2023-02-19T07:10:59.412Z,98452.84
2023-02-19T07:13:28.329Z,98463.41
2023-02-19T07:16:00.189Z,98477.84
2023-02-19T07:18:28.129Z,98465.13
2023-02-19T07:20:55.809Z,98461.75
2023-02-19T07:23:24.831Z,98473.78
2023-02-19T07:25:52.476Z,98475.84
2023-02-19T07:28:20.087Z,98472.00
2023-02-19T07:30:47.753Z,98486.75
2023-02-19T07:33:15.494Z,98474.53
2023-02-19T07:35:46.996Z,98471.59
2023-02-19T07:38:16.955Z,98480.25
2023-02-19T07:40:53.111Z,98488.25
2023-02-19T07:43:20.807Z,98497.53
2023-02-19T07:45:48.911Z,98492.22
2023-02-19T07:48:16.837Z,98493.69
2023-02-19T07:50:52.342Z,98493.03
2023-02-19T07:53:20.462Z,98491.72
2023-02-19T07:55:48.142Z,98494.63
2023-02-19T07:58:17.595Z,98487.41
2023-02-19T08:00:45.907Z,98487.19
2023-02-19T08:03:12.680Z,98492.16
2023-02-19T08:05:44.015Z,98497.44
2023-02-19T08:08:13.660Z,98506.06
2023-02-19T08:11:03.172Z,98501.28
2023-02-19T08:13:33.231Z,98496.13
2023-02-19T08:16:18.646Z,98501.44
2023-02-19T08:18:49.112Z,98514.06
2023-02-19T08:21:18.857Z,98509.53
2023-02-19T08:23:49.339Z,98505.66
2023-02-19T08:26:18.767Z,98510.53
2023-02-19T08:28:49.036Z,98522.31
2023-02-19T08:31:17.325Z,98525.50
2023-02-19T08:33:45.073Z,98534.00
2023-02-19T08:36:12.743Z,98538.94
2023-02-19T08:38:40.393Z,98523.50
2023-02-19T08:41:10.561Z,98548.38
2023-02-19T08:43:38.515Z,98545.31
2023-02-19T08:46:09.960Z,98554.75
2023-02-19T08:48:38.012Z,98550.56
2023-02-19T08:51:08.360Z,98563.41
2023-02-19T08:53:38.434Z,98570.13
2023-02-19T08:56:06.519Z,98565.00
2023-02-19T08:58:34.211Z,98564.22
2023-02-19T09:01:02.158Z,98560.16
2023-02-19T09:03:31.271Z,98552.09
2023-02-19T09:05:58.937Z,98572.13
2023-02-19T09:08:26.676Z,98558.44
2023-02-19T09:11:01.086Z,98560.50
2023-02-19T09:13:29.106Z,98578.31
2023-02-19T09:15:57.761Z,98579.84
2023-02-19T09:18:25.916Z,98580.91
2023-02-19T09:20:54.909Z,98585.91
2023-02-19T09:23:22.493Z,98588.44
2023-02-19T09:25:50.210Z,98582.56
2023-02-19T09:28:17.844Z,98587.38
2023-02-19T09:30:45.499Z,98593.44
2023-02-19T09:33:13.171Z,98605.47
2023-02-19T09:35:41.212Z,98588.16
2023-02-19T09:38:11.076Z,98615.19
2023-02-19T09:40:39.552Z,98608.78
2023-02-19T09:43:08.808Z,98620.50
2023-02-19T09:45:39.026Z,98632.44
2023-02-19T09:48:07.720Z,98626.63
2023-02-19T09:50:40.966Z,98616.66
2023-02-19T09:53:16.710Z,98632.59
2023-02-19T09:55:45.525Z,98614.03
2023-02-19T09:58:24.622Z,98621.28
2023-02-19T10:00:53.362Z,98620.00
2023-02-19T10:03:30.599Z,98618.09
2023-02-19T10:06:00.075Z,98623.00
2023-02-19T10:08:32.962Z,98628.53
2023-02-19T10:11:01.073Z,98621.94
2023-02-19T10:13:32.786Z,98618.88
2023-02-19T10:16:03.038Z,98623.94
2023-02-19T10:18:35.008Z,98626.63
2023-02-19T10:21:02.963Z,98627.28
2023-02-19T10:23:32.438Z,98625.50
2023-02-19T10:26:01.569Z,98634.34
2023-02-19T10:28:32.912Z,98627.94
2023-02-19T10:31:02.784Z,98643.00
2023-02-19T10:33:30.626Z,98653.91
2023-02-19T10:35:59.904Z,98640.75
2023-02-19T10:38:30.643Z,98645.78
2023-02-19T10:41:02.941Z,98641.28
2023-02-19T10:43:34.053Z,98647.78
2023-02-19T10:46:06.076Z,98642.28
2023-02-19T10:48:38.129Z,98650.66
2023-02-19T10:51:09.957Z,98670.53
2023-02-19T10:53:44.511Z,98651.66
2023-02-19T10:56:16.343Z,98644.31
2023-02-19T10:58:47.254Z,98649.09
2023-02-19T11:01:19.817Z,98650.16
2023-02-19T11:03:51.537Z,98665.53
2023-02-19T11:06:22.712Z,98675.72
2023-02-19T11:08:55.168Z,98663.50
2023-02-19T11:11:36.611Z,98671.41
2023-02-19T11:14:14.941Z,98678.50
2023-02-19T11:16:47.358Z,98668.72
2023-02-19T11:19:27.035Z,98686.09
2023-02-19T11:21:56.706Z,98676.53
2023-02-19T11:24:33.797Z,98687.16
2023-02-19T11:27:05.160Z,98695.97
2023-02-19T11:29:34.927Z,98700.78
2023-02-19T11:32:25.550Z,98698.88
2023-02-19T11:34:53.742Z,98697.31
2023-02-19T11:37:22.583Z,98708.03
2023-02-19T11:39:52.231Z,98710.59
2023-02-19T11:42:38.056Z,98706.28
2023-02-19T11:45:24.143Z,98716.19
2023-02-19T11:48:20.277Z,98722.47
2023-02-19T11:50:56.994Z,98703.53
2023-02-19T11:53:27.757Z,98701.94
2023-02-19T11:56:11.590Z,98706.22
2023-02-19T11:59:02.619Z,98707.94
2023-02-19T12:01:49.856Z,98717.34
2023-02-19T12:04:37.739Z,98725.84
2023-02-19T12:07:16.969Z,98715.75
2023-02-19T12:10:03.025Z,98713.66
2023-02-19T12:12:57.986Z,98722.66
2023-02-19T12:15:44.832Z,98715.44
2023-02-19T12:18:38.548Z,98725.00
2023-02-19T12:21:19.644Z,98723.97
2023-02-19T12:24:07.337Z,98726.34
2023-02-19T12:26:41.046Z,98715.41
2023-02-19T12:29:42.884Z,98716.63
2023-02-19T12:32:36.736Z,98707.91
2023-02-19T12:35:29.450Z,98714.66
2023-02-19T12:38:09.506Z,98704.22
2023-02-19T12:40:50.404Z,98701.41
2023-02-19T12:43:20.542Z,98699.59
2023-02-19T12:45:54.031Z,98699.78
2023-02-19T12:48:30.558Z,98692.28
2023-02-19T12:51:03.650Z,98697.63
2023-02-19T12:53:45.521Z,98701.34
2023-02-19T12:56:18.016Z,98688.00
2023-02-19T12:58:49.981Z,98692.78
2023-02-19T13:01:25.048Z,98693.22
2023-02-19T13:04:05.672Z,98689.59
2023-02-19T13:06:40.926Z,98690.19
2023-02-19T13:09:16.198Z,98702.28
2023-02-19T13:11:49.269Z,98698.69
2023-02-19T13:14:24.707Z,98689.34
2023-02-19T13:16:59.050Z,98694.22
2023-02-19T13:19:28.122Z,98702.22
2023-02-19T13:22:24.150Z,98696.53
2023-02-19T13:24:53.159Z,98700.63
2023-02-19T13:27:39.652Z,98710.31
2023-02-19T13:30:23.779Z,98717.59
2023-02-19T13:33:05.447Z,98713.13
2023-02-19T13:36:06.925Z,98714.72
2023-02-19T13:38:43.257Z,98713.69
2023-02-19T13:41:27.337Z,98723.13
2023-02-19T13:44:01.990Z,98710.25
2023-02-19T13:46:38.477Z,98711.16
2023-02-19T13:49:26.746Z,98722.63
2023-02-19T13:51:57.390Z,98717.28
2023-02-19T13:54:27.875Z,98722.25
2023-02-19T13:57:25.907Z,98717.72
2023-02-19T13:59:54.263Z,98737.97
2023-02-19T14:02:35.129Z,98729.63
2023-02-19T14:05:07.239Z,98730.44
2023-02-19T14:07:53.320Z,98730.91
2023-02-19T14:10:58.054Z,98732.19
2023-02-19T14:14:01.651Z,98742.81
2023-02-19T14:16:48.877Z,98739.09
2023-02-19T14:19:37.210Z,98747.19
2023-02-19T14:22:49.794Z,98753.97
2023-02-19T14:25:29.363Z,98761.69
2023-02-19T14:28:02.397Z,98762.53
2023-02-19T14:30:30.683Z,98764.03
2023-02-19T14:33:10.160Z,98762.78
2023-02-19T14:35:41.628Z,98770.63
2023-02-19T14:38:18.918Z,98768.13
2023-02-19T14:40:48.035Z,98768.44
2023-02-19T14:43:18.427Z,98780.47
2023-02-19T14:45:49.628Z,98778.19
2023-02-19T14:48:21.722Z,98769.63
2023-02-19T14:50:52.894Z,98782.59
2023-02-19T14:53:25.868Z,98776.19
2023-02-19T14:55:55.660Z,98789.81
2023-02-19T14:58:25.931Z,98789.25
2023-02-19T15:00:53.704Z,98794.47
2023-02-19T15:03:31.258Z,98802.50
2023-02-19T15:06:03.533Z,98800.41
2023-02-19T15:08:38.208Z,98798.41
2023-02-19T15:11:12.325Z,98800.09
2023-02-19T15:13:45.608Z,98790.63
2023-02-19T15:16:19.091Z,98784.59
2023-02-19T15:18:47.969Z,98780.72
2023-02-19T15:21:24.211Z,98800.97
2023-02-19T15:23:55.920Z,98788.59
2023-02-19T15:26:26.457Z,98792.66
2023-02-19T15:29:01.827Z,98796.38
2023-02-19T15:31:29.718Z,98794.63
2023-02-19T15:33:57.499Z,98788.75
2023-02-19T15:36:29.144Z,98781.91
2023-02-19T15:39:00.921Z,98797.03
2023-02-19T15:41:33.415Z,98780.84
2023-02-19T15:44:17.329Z,98789.25
2023-02-19T15:46:46.821Z,98804.81
2023-02-19T15:49:18.784Z,98790.03
2023-02-19T15:51:50.748Z,98792.94
2023-02-19T15:54:27.522Z,98789.09
2023-02-19T15:57:00.002Z,98792.94
2023-02-19T15:59:31.787Z,98799.06
2023-02-19T16:02:01.876Z,98793.31
2023-02-19T16:04:29.618Z,98796.19
2023-02-19T16:06:59.314Z,98801.34
2023-02-19T16:09:33.308Z,98812.53
2023-02-19T16:12:02.623Z,98819.78
2023-02-19T16:14:32.096Z,98822.53
2023-02-19T16:17:07.395Z,98829.25
2023-02-19T16:19:46.652Z,98838.38
2023-02-19T16:22:18.048Z,98843.03
2023-02-19T16:24:48.553Z,98829.25
2023-02-19T16:27:30.618Z,98835.34
2023-02-19T16:29:59.000Z,98843.53
2023-02-19T16:32:26.759Z,98851.84
2023-02-19T16:34:54.552Z,98843.53
2023-02-19T16:37:36.822Z,98832.47
2023-02-19T16:41:00.253Z,98835.38
2023-02-19T16:43:31.541Z,98844.81
2023-02-19T16:46:00.833Z,98844.66
2023-02-19T16:48:29.322Z,98854.41
2023-02-19T16:50:56.990Z,98857.94
2023-02-19T16:53:25.801Z,98856.50
2023-02-19T16:55:54.788Z,98853.78
2023-02-19T16:58:22.712Z,98847.38
2023-02-19T17:00:50.404Z,98853.47
2023-02-19T17:03:21.417Z,98864.81
2023-02-19T17:05:49.390Z,98869.50
2023-02-19T17:08:35.154Z,98876.06
2023-02-19T17:11:06.054Z,98884.06
2023-02-19T17:13:34.054Z,98886.16
2023-02-19T17:16:01.972Z,98901.06
2023-02-19T17:18:29.751Z,98898.97
2023-02-19T17:21:02.299Z,98909.72
2023-02-19T17:23:30.039Z,98910.03
2023-02-19T17:25:58.305Z,98908.59
2023-02-19T17:28:27.591Z,98917.06
2023-02-19T17:30:55.220Z,98922.69
2023-02-19T17:33:22.912Z,98923.31
2023-02-19T17:35:50.556Z,98926.38
2023-02-19T17:38:18.383Z,98930.53
2023-02-19T17:40:46.228Z,98927.00
2023-02-19T17:43:14.666Z,98930.03
2023-02-19T17:45:43.862Z,98928.91
2023-02-19T17:48:13.464Z,98941.41
2023-02-19T17:50:41.549Z,98944.28
2023-02-19T17:53:09.848Z,98950.97
2023-02-19T17:55:37.531Z,98959.94
2023-02-19T17:58:08.205Z,98961.25
2023-02-19T18:00:36.744Z,98964.28
2023-02-19T18:03:07.584Z,98976.78
2023-02-19T18:05:35.330Z,98980.00
2023-02-19T18:08:03.301Z,98976.59
2023-02-19T18:10:31.289Z,98984.47
2023-02-19T18:12:58.967Z,98981.72
2023-02-19T18:15:27.550Z,98979.97
2023-02-19T18:17:55.951Z,98991.81
2023-02-19T18:20:26.887Z,98990.00
2023-02-19T18:22:55.212Z,99000.91
2023-02-19T18:25:24.470Z,98997.53
2023-02-19T18:27:52.329Z,99000.72
2023-02-19T18:30:22.942Z,99000.28
2023-02-19T18:32:52.380Z,99002.81
2023-02-19T18:35:21.785Z,98992.75
2023-02-19T18:37:52.816Z,99000.41
2023-02-19T18:40:21.201Z,99005.38
2023-02-19T18:42:49.033Z,99008.94
2023-02-19T18:45:16.822Z,99006.34
2023-02-19T18:47:47.785Z,99011.00
2023-02-19T18:50:15.937Z,99024.28
2023-02-19T18:52:43.685Z,99028.13
2023-02-19T18:55:13.338Z,99018.84
2023-02-19T18:57:41.120Z,99015.63
2023-02-19T19:00:09.815Z,99004.75
2023-02-19T19:02:48.807Z,99010.81
2023-02-19T19:05:21.289Z,99002.81
2023-02-19T19:07:49.075Z,99004.41
2023-02-19T19:10:18.570Z,99007.63
2023-02-19T19:12:46.342Z,99009.34
2023-02-19T19:15:15.717Z,99016.41
2023-02-19T19:17:45.585Z,99015.44
2023-02-19T19:20:14.055Z,99023.31
2023-02-19T19:22:42.054Z,99028.75
2023-02-19T19:25:10.301Z,99029.41
2023-02-19T19:27:39.462Z,99032.44
2023-02-19T19:30:08.658Z,99029.03
2023-02-19T19:32:36.548Z,99026.81
2023-02-19T19:35:04.764Z,99032.25
2023-02-19T19:37:33.796Z,99020.88
2023-02-19T19:40:04.212Z,99032.88
2023-02-19T19:42:32.233Z,99027.44
2023-02-19T19:45:02.753Z,99047.59
2023-02-19T19:47:30.735Z,99041.53
2023-02-19T19:49:58.546Z,99049.00
2023-02-19T19:52:28.493Z,99049.81
2023-02-19T19:54:56.422Z,99045.78
2023-02-19T19:57:24.324Z,99055.88
2023-02-19T19:59:53.856Z,99058.91
2023-02-19T20:02:23.994Z,99055.88
2023-02-19T20:04:52.361Z,99054.28
2023-02-19T20:07:20.306Z,99063.72
2023-02-19T20:09:49.429Z,99059.22
2023-02-19T20:12:18.003Z,99052.63
2023-02-19T20:14:46.727Z,99065.78
2023-02-19T20:17:14.718Z,99064.41
2023-02-19T20:19:44.312Z,99066.63
2023-02-19T20:22:12.551Z,99057.97
2023-02-19T20:24:40.634Z,99067.28
2023-02-19T20:27:13.355Z,99072.72
2023-02-19T20:29:44.520Z,99069.50
2023-02-19T20:32:14.143Z,99075.84
2023-02-19T20:34:43.697Z,99081.59
2023-02-19T20:37:11.965Z,99080.59
2023-02-19T20:39:40.008Z,99073.13
2023-02-19T20:42:09.521Z,99075.34
2023-02-19T20:44:37.475Z,99073.56
2023-02-19T20:47:07.463Z,99078.88
2023-02-19T20:49:35.362Z,99088.66
2023-02-19T20:52:07.834Z,99076.16
2023-02-19T20:54:38.402Z,99083.81
2023-02-19T20:57:07.301Z,99079.78
2023-02-19T20:59:36.190Z,99080.19
2023-02-19T21:02:07.196Z,99093.09
2023-02-19T21:04:35.769Z,99085.03
2023-02-19T21:07:05.882Z,99087.28
2023-02-19T21:09:33.663Z,99087.00
2023-02-19T21:12:02.896Z,99090.63
2023-02-19T21:14:30.707Z,99078.84
2023-02-19T21:16:59.857Z,99081.22
2023-02-19T21:19:31.377Z,99090.47
2023-02-19T21:22:08.385Z,99084.34
2023-02-19T21:24:37.894Z,99085.75
2023-02-19T21:27:05.756Z,99093.81
2023-02-19T21:29:33.599Z,99093.00
2023-02-19T21:32:03.655Z,99092.59
2023-02-19T21:34:32.875Z,99091.78
2023-02-19T21:37:02.169Z,99088.88
2023-02-19T21:39:31.366Z,99101.84
2023-02-19T21:42:02.561Z,99100.25
2023-02-19T21:44:30.460Z,99105.69
2023-02-19T21:46:58.587Z,99085.34
2023-02-19T21:49:27.274Z,99084.75
2023-02-19T21:51:55.174Z,99090.19
2023-02-19T21:54:25.459Z,99083.34
2023-02-19T21:56:55.634Z,99090.59
2023-02-19T21:59:27.176Z,99082.94
2023-02-19T22:01:56.993Z,99091.59
2023-02-19T22:04:26.654Z,99095.31
2023-02-19T22:06:57.241Z,99099.00
2023-02-19T22:09:25.953Z,99092.34
2023-02-19T22:11:54.037Z,99099.88
2023-02-19T22:14:26.864Z,99102.31
2023-02-19T22:16:56.199Z,99099.38
2023-02-19T22:19:24.090Z,99100.19
2023-02-19T22:21:51.841Z,99111.38
2023-02-19T22:24:21.777Z,99115.22
2023-02-19T22:26:50.748Z,99126.09
2023-02-19T22:29:18.936Z,99131.03
2023-02-19T22:31:48.135Z,99124.78
2023-02-19T22:34:16.713Z,99128.81
2023-02-19T22:36:44.830Z,99125.59
2023-02-19T22:39:17.920Z,99135.84
2023-02-19T22:41:46.048Z,99129.41
2023-02-19T22:44:14.606Z,99121.84
2023-02-19T22:46:49.522Z,99121.38
2023-02-19T22:49:17.680Z,99119.13
2023-02-19T22:51:50.647Z,99122.38
2023-02-19T22:54:21.728Z,99130.03
2023-02-19T22:56:49.709Z,99124.09
2023-02-19T22:59:17.745Z,99120.88
2023-02-19T23:01:45.820Z,99124.59
2023-02-19T23:04:15.008Z,99131.63
2023-02-19T23:06:45.268Z,99128.41
2023-02-19T23:09:16.635Z,99130.03
2023-02-19T23:11:44.347Z,99137.06
2023-02-19T23:14:12.409Z,99130.81
2023-02-19T23:16:40.151Z,99124.97
2023-02-19T23:19:11.420Z,99131.81
2023-02-19T23:21:40.917Z,99124.97
2023-02-19T23:24:09.222Z,99121.25
2023-02-19T23:26:37.015Z,99125.59
2023-02-19T23:29:04.799Z,99119.13
2023-02-19T23:31:32.562Z,99108.75
2023-02-19T23:34:00.249Z,99121.75
2023-02-19T23:36:27.929Z,99106.03
2023-02-19T23:38:56.982Z,99109.25
2023-02-19T23:41:24.624Z,99100.00
2023-02-19T23:43:52.653Z,99101.59
2023-02-19T23:46:20.390Z,99097.78
2023-02-19T23:48:48.133Z,99107.03
2023-02-19T23:51:15.884Z,99103.53
2023-02-19T23:53:43.580Z,99106.44
2023-02-19T23:56:13.166Z,99112.69
2023-02-19T23:58:40.992Z,99103.91
